createdAt,value
2023-02-13T00:04:38.935Z,0.50
2023-02-13T00:05:39.644Z,0.50
2023-02-13T00:06:39.842Z,0.50
2023-02-13T00:07:39.606Z,0.50
2023-02-13T00:08:38.290Z,0.50
2023-02-13T00:09:39.405Z,0.50
2023-02-13T00:11:58.810Z,0.50
2023-02-13T00:12:59.965Z,0.50
2023-02-13T00:15:18.483Z,0.50
2023-02-13T00:16:18.288Z,0.50
2023-02-13T00:17:18.286Z,0.50
2023-02-13T00:18:18.223Z,0.50
2023-02-13T00:19:18.221Z,0.50
2023-02-13T00:20:18.259Z,0.51
2023-02-13T00:21:18.269Z,0.53
2023-02-13T00:22:18.235Z,0.53
2023-02-13T00:23:18.214Z,0.51
2023-02-13T00:24:18.204Z,0.50
2023-02-13T00:25:18.250Z,0.50
2023-02-13T00:26:18.300Z,0.50
2023-02-13T00:27:18.491Z,0.50
2023-02-13T00:28:18.206Z,0.50
2023-02-13T00:29:18.207Z,0.50
2023-02-13T00:30:18.148Z,0.50
2023-02-13T00:31:18.297Z,0.50
2023-02-13T00:32:18.202Z,0.50
2023-02-13T00:33:18.130Z,0.50
2023-02-13T00:34:18.132Z,0.50
2023-02-13T00:35:18.157Z,0.50
2023-02-13T00:36:18.100Z,0.50
2023-02-13T00:37:18.131Z,0.50
2023-02-13T00:42:22.946Z,0.50
2023-02-13T00:50:09.687Z,0.50
2023-02-13T00:51:09.086Z,0.50
2023-02-13T00:52:09.199Z,0.50
2023-02-13T00:53:09.472Z,0.50
2023-02-13T00:54:09.103Z,0.50
2023-02-13T00:55:09.092Z,0.50
2023-02-13T00:56:09.084Z,0.50
2023-02-13T00:57:09.066Z,0.50
2023-02-13T00:58:09.124Z,0.50
2023-02-13T00:59:09.066Z,0.50
2023-02-13T01:00:09.024Z,0.50
2023-02-13T01:01:09.063Z,0.50
2023-02-13T01:02:08.999Z,0.50
2023-02-13T01:03:09.004Z,0.50
2023-02-13T01:04:09.038Z,0.50
2023-02-13T01:06:31.003Z,0.50
2023-02-13T01:12:31.455Z,0.50
2023-02-13T01:23:37.181Z,0.50
2023-02-13T01:24:36.252Z,0.50
2023-02-13T01:25:36.106Z,0.50
2023-02-13T01:26:34.340Z,0.50
2023-02-13T01:27:34.591Z,0.50
2023-02-13T01:28:34.287Z,0.50
2023-02-13T01:29:34.437Z,0.50
2023-02-13T01:30:34.308Z,0.50
2023-02-13T01:31:34.474Z,0.50
2023-02-13T01:32:34.466Z,0.50
2023-02-13T01:33:34.171Z,0.51
2023-02-13T01:34:35.301Z,0.50
2023-02-13T01:35:34.335Z,0.50
2023-02-13T01:36:34.277Z,0.50
2023-02-13T01:37:34.445Z,0.52
2023-02-13T01:38:34.448Z,0.51
2023-02-13T01:39:34.370Z,0.51
2023-02-13T01:40:34.516Z,0.51
2023-02-13T01:41:34.408Z,0.50
2023-02-13T01:42:34.230Z,0.50
2023-02-13T01:43:34.169Z,0.50
2023-02-13T01:44:35.592Z,0.50
2023-02-13T01:45:34.180Z,0.51
2023-02-13T01:46:34.362Z,0.51
2023-02-13T01:47:34.289Z,0.52
2023-02-13T01:48:35.559Z,0.52
2023-02-13T01:49:34.204Z,0.51
2023-02-13T01:50:34.222Z,0.51
2023-02-13T01:51:35.184Z,0.52
2023-02-13T01:52:34.298Z,0.52
2023-02-13T01:53:34.263Z,0.51
2023-02-13T01:54:34.520Z,0.52
2023-02-13T01:55:35.300Z,0.51
2023-02-13T01:56:34.407Z,0.51
2023-02-13T01:57:34.423Z,0.51
2023-02-13T01:58:34.521Z,0.51
2023-02-13T02:00:34.635Z,0.51
2023-02-13T02:01:34.679Z,0.51
2023-02-13T02:02:35.353Z,0.52
2023-02-13T02:03:34.455Z,0.51
2023-02-13T02:04:34.483Z,0.50
2023-02-13T02:05:35.334Z,0.51
2023-02-13T02:06:34.393Z,0.54
2023-02-13T02:07:34.494Z,0.58
2023-02-13T02:08:35.295Z,0.58
2023-02-13T02:09:35.343Z,0.59
2023-02-13T02:10:34.325Z,0.58
2023-02-13T02:11:34.720Z,0.56
2023-02-13T02:12:34.251Z,0.58
2023-02-13T02:13:34.476Z,0.60
2023-02-13T02:14:34.337Z,0.62
2023-02-13T02:15:34.438Z,0.64
2023-02-13T02:16:34.339Z,0.62
2023-02-13T02:17:34.352Z,0.60
2023-02-13T02:18:34.277Z,0.58
2023-02-13T02:19:34.211Z,0.56
2023-02-13T02:20:35.433Z,0.57
2023-02-13T02:21:34.282Z,0.57
2023-02-13T02:27:17.726Z,0.50
2023-02-13T02:28:18.157Z,0.50
2023-02-13T02:29:17.163Z,0.50
2023-02-13T02:31:38.792Z,0.50
2023-02-13T02:32:37.891Z,0.50
2023-02-13T02:35:07.803Z,0.50
2023-02-13T02:36:07.342Z,0.50
2023-02-13T02:37:06.831Z,0.50
2023-02-13T02:38:06.527Z,0.50
2023-02-13T02:39:06.549Z,0.50
2023-02-13T02:40:07.170Z,0.50
2023-02-13T02:41:06.573Z,0.50
2023-02-13T02:43:27.016Z,0.50
2023-02-13T02:44:27.467Z,0.50
2023-02-13T02:45:26.818Z,0.50
2023-02-13T02:46:26.839Z,0.50
2023-02-13T02:47:26.430Z,0.50
2023-02-13T02:48:26.383Z,0.50
2023-02-13T02:49:26.306Z,0.50
2023-02-13T02:50:26.394Z,0.50
2023-02-13T02:51:26.396Z,0.50
2023-02-13T02:52:26.526Z,0.50
2023-02-13T02:53:26.574Z,0.50
2023-02-13T02:55:26.276Z,0.52
2023-02-13T02:56:26.473Z,0.52
2023-02-13T02:57:26.189Z,0.51
2023-02-13T02:58:26.155Z,0.50
2023-02-13T02:59:26.131Z,0.50
2023-02-13T03:00:26.242Z,0.51
2023-02-13T03:02:47.138Z,0.50
2023-02-13T03:03:47.020Z,0.50
2023-02-13T03:04:47.676Z,0.50
2023-02-13T03:05:46.864Z,0.50
2023-02-13T03:06:46.666Z,0.50
2023-02-13T03:07:46.830Z,0.50
2023-02-13T03:08:46.691Z,0.50
2023-02-13T03:20:46.957Z,0.61
2023-02-13T03:21:47.061Z,0.62
2023-02-13T03:22:47.185Z,0.66
2023-02-13T03:23:47.452Z,0.69
2023-02-13T03:24:47.190Z,0.70
2023-02-13T03:25:47.620Z,0.73
2023-02-13T03:26:47.871Z,0.72
2023-02-13T03:27:49.165Z,0.69
2023-02-13T03:29:47.505Z,0.69
2023-02-13T03:30:47.192Z,0.69
2023-02-13T03:31:47.191Z,0.69
2023-02-13T03:32:47.082Z,0.68
2023-02-13T03:34:47.137Z,0.68
2023-02-13T03:35:47.048Z,0.66
2023-02-13T03:36:47.144Z,0.66
2023-02-13T03:37:47.056Z,0.64
2023-02-13T03:38:47.042Z,0.63
2023-02-13T03:39:47.047Z,0.60
2023-02-13T03:40:47.056Z,0.59
2023-02-13T03:41:47.091Z,0.58
2023-02-13T03:42:47.062Z,0.57
2023-02-13T03:43:47.053Z,0.55
2023-02-13T03:44:47.017Z,0.53
2023-02-13T03:45:47.065Z,0.53
2023-02-13T03:46:47.042Z,0.54
2023-02-13T03:47:47.016Z,0.52
2023-02-13T03:48:47.089Z,0.51
2023-02-13T03:49:46.961Z,0.53
2023-02-13T03:50:46.988Z,0.51
2023-02-13T03:51:47.037Z,0.50
2023-02-13T03:52:46.954Z,0.52
2023-02-13T03:53:46.948Z,0.51
2023-02-13T03:56:08.954Z,0.50
2023-02-13T03:58:28.516Z,0.50
2023-02-13T03:59:27.876Z,0.50
2023-02-13T04:00:29.447Z,0.50
2023-02-13T04:01:27.981Z,0.50
2023-02-13T04:02:27.953Z,0.50
2023-02-13T04:03:27.711Z,0.50
2023-02-13T04:04:29.118Z,0.51
2023-02-13T04:05:28.738Z,0.50
2023-02-13T04:06:29.465Z,0.51
2023-02-13T04:07:27.971Z,0.51
2023-02-13T04:08:28.284Z,0.50
2023-02-13T04:09:28.029Z,0.51
2023-02-13T04:10:29.234Z,0.51
2023-02-13T04:11:28.151Z,0.51
2023-02-13T04:12:29.002Z,0.51
2023-02-13T04:13:28.918Z,0.52
2023-02-13T04:14:29.082Z,0.51
2023-02-13T04:16:48.829Z,0.50
2023-02-13T04:17:48.592Z,0.50
2023-02-13T04:20:08.494Z,0.50
2023-02-13T04:21:09.229Z,0.50
2023-02-13T04:22:08.737Z,0.50
2023-02-13T04:23:08.136Z,0.50
2023-02-13T04:24:08.189Z,0.50
2023-02-13T04:25:08.501Z,0.50
2023-02-13T04:26:09.136Z,0.50
2023-02-13T04:27:07.969Z,0.50
2023-02-13T04:28:07.964Z,0.50
2023-02-13T04:29:08.135Z,0.50
2023-02-13T04:30:07.963Z,0.51
2023-02-13T04:31:08.101Z,0.52
2023-02-13T04:32:07.865Z,0.55
2023-02-13T04:33:07.853Z,0.57
2023-02-13T04:34:07.917Z,0.57
2023-02-13T04:35:07.887Z,0.55
2023-02-13T04:36:07.824Z,0.53
2023-02-13T04:37:07.833Z,0.50
2023-02-13T04:38:07.839Z,0.50
2023-02-13T04:39:07.851Z,0.50
2023-02-13T04:40:07.891Z,0.50
2023-02-13T04:41:07.784Z,0.51
2023-02-13T04:42:07.849Z,0.50
2023-02-13T04:43:07.738Z,0.52
2023-02-13T04:44:07.868Z,0.53
2023-02-13T04:45:07.779Z,0.53
2023-02-13T04:46:07.823Z,0.56
2023-02-13T04:47:07.767Z,0.57
2023-02-13T04:48:07.811Z,0.56
2023-02-13T04:49:07.875Z,0.57
2023-02-13T04:50:07.958Z,0.54
2023-02-13T04:51:07.951Z,0.52
2023-02-13T04:52:08.075Z,0.50
2023-02-13T04:53:08.060Z,0.50
2023-02-13T04:54:08.072Z,0.52
2023-02-13T04:55:08.093Z,0.51
2023-02-13T04:56:08.159Z,0.53
2023-02-13T04:57:08.229Z,0.52
2023-02-13T04:58:08.259Z,0.51
2023-02-13T04:59:08.268Z,0.51
2023-02-13T05:00:08.331Z,0.52
2023-02-13T05:01:08.341Z,0.52
2023-02-13T05:02:08.324Z,0.52
2023-02-13T05:03:08.449Z,0.53
2023-02-13T05:04:08.396Z,0.55
2023-02-13T05:05:08.406Z,0.57
2023-02-13T05:06:08.743Z,0.57
2023-02-13T05:07:08.685Z,0.55
2023-02-13T05:08:09.042Z,0.60
2023-02-13T05:09:08.695Z,0.63
2023-02-13T05:10:08.828Z,0.62
2023-02-13T05:11:09.169Z,0.66
2023-02-13T05:12:08.917Z,0.66
2023-02-13T05:13:09.067Z,0.75
2023-02-13T05:14:09.069Z,0.81
2023-02-13T05:15:09.032Z,0.75
2023-02-13T05:16:09.332Z,0.68
2023-02-13T05:17:09.155Z,0.64
2023-02-13T05:18:09.219Z,0.63
2023-02-13T05:19:10.401Z,0.62
2023-02-13T05:20:09.279Z,0.62
2023-02-13T05:21:09.095Z,0.63
2023-02-13T05:22:09.112Z,0.61
2023-02-13T05:23:09.185Z,0.62
2023-02-13T05:24:09.280Z,0.64
2023-02-13T05:25:09.295Z,0.64
2023-02-13T05:26:09.343Z,0.64
2023-02-13T05:27:09.516Z,0.67
2023-02-13T05:28:09.564Z,0.77
2023-02-13T05:29:09.527Z,0.85
2023-02-13T05:30:09.562Z,0.91
2023-02-13T05:31:09.640Z,1.04
2023-02-13T05:32:09.714Z,1.13
2023-02-13T05:33:09.578Z,1.13
2023-02-13T05:34:09.663Z,1.13
2023-02-13T05:35:09.657Z,1.12
2023-02-13T05:36:09.675Z,1.07
2023-02-13T05:37:09.676Z,1.05
2023-02-13T05:38:09.645Z,1.08
2023-02-13T05:39:09.781Z,1.06
2023-02-13T05:40:09.637Z,1.08
2023-02-13T05:41:09.705Z,1.15
2023-02-13T05:42:09.708Z,1.15
2023-02-13T05:43:09.662Z,1.15
2023-02-13T05:44:09.668Z,1.18
2023-02-13T05:45:09.728Z,1.09
2023-02-13T05:46:09.922Z,1.00
2023-02-13T05:47:09.747Z,1.05
2023-02-13T05:48:09.760Z,0.99
2023-02-13T05:49:09.767Z,1.02
2023-02-13T05:50:09.779Z,1.53
2023-02-13T05:51:09.822Z,2.04
2023-02-13T05:52:09.832Z,1.46
2023-02-13T05:53:09.845Z,1.37
2023-02-13T05:54:09.882Z,1.41
2023-02-13T05:55:09.895Z,1.49
2023-02-13T05:56:09.867Z,1.49
2023-02-13T05:57:09.914Z,1.40
2023-02-13T05:58:09.924Z,1.44
2023-02-13T05:59:09.879Z,1.39
2023-02-13T06:00:09.889Z,1.40
2023-02-13T06:02:10.653Z,1.46
2023-02-13T06:03:10.020Z,1.47
2023-02-13T06:04:10.096Z,1.48
2023-02-13T06:05:10.561Z,1.53
2023-02-13T06:06:09.844Z,1.60
2023-02-13T06:07:09.860Z,1.54
2023-02-13T06:08:09.854Z,1.58
2023-02-13T06:09:09.855Z,1.50
2023-02-13T06:10:09.804Z,1.40
2023-02-13T06:11:09.792Z,1.35
2023-02-13T06:12:09.801Z,1.31
2023-02-13T06:13:09.958Z,1.27
2023-02-13T06:14:09.783Z,1.28
2023-02-13T06:15:09.809Z,1.31
2023-02-13T06:16:09.813Z,1.34
2023-02-13T06:17:09.800Z,1.32
2023-02-13T06:18:09.720Z,1.24
2023-02-13T06:19:09.744Z,1.31
2023-02-13T06:20:09.716Z,1.43
2023-02-13T06:21:09.756Z,1.86
2023-02-13T06:22:10.006Z,2.28
2023-02-13T06:23:09.735Z,2.14
2023-02-13T06:24:09.753Z,2.30
2023-02-13T06:25:09.690Z,2.69
2023-02-13T06:26:09.662Z,3.04
2023-02-13T06:27:09.661Z,3.23
2023-02-13T06:28:09.708Z,3.48
2023-02-13T06:29:09.646Z,3.71
2023-02-13T06:30:09.684Z,3.66
2023-02-13T06:31:09.779Z,3.47
2023-02-13T06:40:40.023Z,0.50
2023-02-13T06:41:41.066Z,0.50
2023-02-13T06:42:40.343Z,0.50
2023-02-13T06:43:40.908Z,0.50
2023-02-13T06:44:40.459Z,0.50
2023-02-13T06:46:59.669Z,0.50
2023-02-13T06:47:59.161Z,0.50
2023-02-13T06:48:59.185Z,0.50
2023-02-13T06:49:59.144Z,0.50
2023-02-13T06:50:59.424Z,0.50
2023-02-13T06:51:59.129Z,0.50
2023-02-13T06:52:59.130Z,0.51
2023-02-13T06:53:59.109Z,0.50
2023-02-13T06:54:59.149Z,0.52
2023-02-13T06:55:59.126Z,0.52
2023-02-13T06:56:59.134Z,0.50
2023-02-13T06:57:59.152Z,0.52
2023-02-13T06:58:59.081Z,0.53
2023-02-13T06:59:59.089Z,0.53
2023-02-13T07:00:59.378Z,0.56
2023-02-13T07:01:59.065Z,0.55
2023-02-13T07:02:59.103Z,0.53
2023-02-13T07:03:59.052Z,0.50
2023-02-13T07:04:59.020Z,0.50
2023-02-13T07:05:59.049Z,0.50
2023-02-13T07:06:58.992Z,0.50
2023-02-13T07:07:59.038Z,0.52
2023-02-13T07:08:59.047Z,0.51
2023-02-13T07:09:58.993Z,0.63
2023-02-13T07:10:59.314Z,0.64
2023-02-13T07:11:59.009Z,0.66
2023-02-13T07:13:05.790Z,0.67
2023-02-13T07:13:59.961Z,0.67
2023-02-13T07:14:58.985Z,0.65
2023-02-13T07:15:58.969Z,0.66
2023-02-13T07:16:58.979Z,0.68
2023-02-13T07:17:59.336Z,1.00
2023-02-13T07:18:59.082Z,1.18
2023-02-13T07:43:40.661Z,0.50
2023-02-13T07:44:42.277Z,0.50
2023-02-13T07:50:38.780Z,0.50
2023-02-13T07:51:40.287Z,0.50
2023-02-13T07:52:39.108Z,0.50
2023-02-13T07:53:38.428Z,0.50
2023-02-13T07:54:38.344Z,0.50
2023-02-13T07:55:38.624Z,0.50
2023-02-13T07:56:38.247Z,0.50
2023-02-13T07:57:39.377Z,0.50
2023-02-13T07:58:38.729Z,0.50
2023-02-13T07:59:38.440Z,0.50
2023-02-13T08:00:39.410Z,0.50
2023-02-13T08:01:38.317Z,0.49
2023-02-13T08:02:39.775Z,0.50
2023-02-13T08:03:38.659Z,0.49
2023-02-13T08:04:38.480Z,0.53
2023-02-13T08:05:39.623Z,0.52
2023-02-13T08:06:54.267Z,0.47
2023-02-13T08:07:38.616Z,0.47
2023-02-13T08:08:38.265Z,0.34
2023-02-13T08:09:39.666Z,0.34
2023-02-13T08:10:38.308Z,0.34
2023-02-13T08:11:38.418Z,0.34
2023-02-13T08:12:38.407Z,0.34
2023-02-13T08:13:38.430Z,0.38
2023-02-13T08:14:38.438Z,0.46
2023-02-13T08:15:38.461Z,0.53
2023-02-13T08:16:38.489Z,0.61
2023-02-13T08:17:38.546Z,0.64
2023-02-13T08:18:38.557Z,0.72
2023-02-13T08:19:39.599Z,0.76
2023-02-13T08:20:38.660Z,0.80
2023-02-13T08:21:38.657Z,0.76
2023-02-13T08:22:38.776Z,0.75
2023-02-13T08:23:38.748Z,0.73
2023-02-13T08:24:38.813Z,0.77
2023-02-13T08:51:58.471Z,2.89
2023-02-13T08:52:58.508Z,2.98
2023-02-13T08:54:58.378Z,3.34
2023-02-13T08:55:58.748Z,4.40
2023-02-13T08:58:18.258Z,0.50
2023-02-13T08:59:18.372Z,0.50
2023-02-13T09:00:17.877Z,0.50
2023-02-13T09:01:18.033Z,0.50
2023-02-13T09:02:17.917Z,0.50
2023-02-13T09:03:18.553Z,0.49
2023-02-13T09:04:17.871Z,0.49
2023-02-13T09:05:17.887Z,0.51
2023-02-13T09:06:17.783Z,0.49
2023-02-13T09:07:17.803Z,0.55
2023-02-13T09:08:18.846Z,0.53
2023-02-13T09:09:17.753Z,0.69
2023-02-13T09:10:17.801Z,0.91
2023-02-13T09:11:17.729Z,0.71
2023-02-13T09:12:17.765Z,0.50
2023-02-13T09:13:17.740Z,0.52
2023-02-13T09:14:17.764Z,0.58
2023-02-13T09:15:17.753Z,0.54
2023-02-13T09:17:38.880Z,0.50
2023-02-13T09:19:57.191Z,0.50
2023-02-13T09:20:56.930Z,0.50
2023-02-13T09:21:56.956Z,0.50
2023-02-13T09:22:57.014Z,0.50
2023-02-13T09:23:56.989Z,0.50
2023-02-13T09:24:57.382Z,0.51
2023-02-13T09:25:57.215Z,0.47
2023-02-13T09:26:56.970Z,0.40
2023-02-13T09:27:56.893Z,0.47
2023-02-13T09:28:56.861Z,0.50
2023-02-13T09:31:16.526Z,0.50
2023-02-13T09:33:37.668Z,0.50
2023-02-13T09:34:36.570Z,0.50
2023-02-13T09:35:36.809Z,0.50
2023-02-13T09:53:37.201Z,1.22
2023-02-13T09:57:36.304Z,2.57
2023-02-13T09:59:36.340Z,1.93
2023-02-13T10:00:36.518Z,1.87
2023-02-13T10:01:36.546Z,1.90
2023-02-13T10:02:36.451Z,2.53
2023-02-13T10:03:36.459Z,3.16
2023-02-13T10:04:36.515Z,3.62
2023-02-13T10:05:36.664Z,3.76
2023-02-13T10:06:36.479Z,3.43
2023-02-13T10:07:36.774Z,2.77
2023-02-13T10:08:36.629Z,1.53
2023-02-13T10:09:36.585Z,0.85
2023-02-13T10:10:38.962Z,0.46
2023-02-13T10:31:43.146Z,0.50
2023-02-13T10:32:42.703Z,0.50
2023-02-13T10:33:43.135Z,0.50
2023-02-13T10:34:43.370Z,0.50
2023-02-13T10:35:42.711Z,0.50
2023-02-13T10:36:42.809Z,0.46
2023-02-13T10:37:42.844Z,0.50
2023-02-13T10:38:42.793Z,0.43
2023-02-13T10:39:42.835Z,0.44
2023-02-13T10:40:42.843Z,0.52
2023-02-13T10:41:42.848Z,0.55
2023-02-13T10:42:42.965Z,0.74
2023-02-13T10:43:42.899Z,0.90
2023-02-13T10:44:42.954Z,1.01
2023-02-13T10:45:43.001Z,0.98
2023-02-13T10:46:43.030Z,0.97
2023-02-13T10:47:43.041Z,0.60
2023-02-13T10:48:43.049Z,0.44
2023-02-13T10:49:43.210Z,0.46
2023-02-13T10:50:43.115Z,0.45
2023-02-13T10:51:43.174Z,0.50
2023-02-13T10:52:43.257Z,0.57
2023-02-13T10:53:43.298Z,0.54
2023-02-13T10:54:43.367Z,0.62
2023-02-13T10:55:43.383Z,0.51
2023-02-13T10:56:43.360Z,0.56
2023-02-13T10:57:43.605Z,0.53
2023-02-13T10:58:43.506Z,0.49
2023-02-13T10:59:43.587Z,0.42
2023-02-13T11:00:43.531Z,0.42
2023-02-13T11:01:43.611Z,0.48
2023-02-13T11:02:43.749Z,0.53
2023-02-13T11:03:44.056Z,0.62
2023-02-13T11:04:43.760Z,0.83
2023-02-13T11:05:44.219Z,0.91
2023-02-13T11:06:44.847Z,1.25
2023-02-13T11:07:44.866Z,1.42
2023-02-13T11:08:43.875Z,1.60
2023-02-13T11:09:43.923Z,1.39
2023-02-13T11:10:43.895Z,1.52
2023-02-13T11:11:43.967Z,1.36
2023-02-13T11:12:43.918Z,1.82
2023-02-13T11:13:43.992Z,3.14
2023-02-13T11:14:44.012Z,2.69
2023-02-13T11:15:44.049Z,2.69
2023-02-13T11:59:42.582Z,0.50
2023-02-13T12:04:40.418Z,0.50
2023-02-13T12:14:56.470Z,0.50
2023-02-13T12:15:57.925Z,0.50
2023-02-13T12:58:21.886Z,0.50
2023-02-13T12:59:20.180Z,0.50
2023-02-13T13:19:54.391Z,0.79
2023-02-13T13:20:59.099Z,0.50
2023-02-13T13:23:17.827Z,0.50
2023-02-13T13:24:17.708Z,0.50
2023-02-13T13:25:18.186Z,0.50
2023-02-13T13:26:18.709Z,0.50
2023-02-13T13:27:17.774Z,0.50
2023-02-13T13:28:17.652Z,0.50
2023-02-13T13:29:17.598Z,0.60
2023-02-13T13:30:17.666Z,0.47
2023-02-13T13:31:17.729Z,0.49
2023-02-13T13:32:17.539Z,0.51
2023-02-13T13:41:01.628Z,0.50
2023-02-13T13:43:17.531Z,0.50
2023-02-13T13:48:56.020Z,0.50
2023-02-13T13:49:56.118Z,0.50
2023-02-13T13:50:55.714Z,0.50
2023-02-13T13:51:55.681Z,0.50
2023-02-13T13:52:55.921Z,0.50
2023-02-13T13:54:55.770Z,0.37
2023-02-13T13:55:55.586Z,0.34
2023-02-13T13:56:55.714Z,0.46
2023-02-13T13:58:55.607Z,0.34
2023-02-13T14:04:49.591Z,0.50
2023-02-13T14:07:01.839Z,0.50
2023-02-13T14:17:19.609Z,0.69
2023-02-13T14:18:19.584Z,1.20
2023-02-13T14:19:19.551Z,1.41
2023-02-13T14:20:19.543Z,0.57
2023-02-13T14:21:19.532Z,0.67
2023-02-13T14:22:19.670Z,0.58
2023-02-13T14:23:20.011Z,0.62
2023-02-13T14:32:04.555Z,0.50
2023-02-13T14:39:22.501Z,0.49
2023-02-13T14:41:22.563Z,0.87
2023-02-13T14:42:22.496Z,0.44
2023-02-13T14:43:22.506Z,0.34
2023-02-13T14:44:22.450Z,0.34
2023-02-13T14:45:22.482Z,0.34
2023-02-13T14:46:22.475Z,0.50
2023-02-13T14:47:22.473Z,0.47
2023-02-13T14:48:22.529Z,0.55
2023-02-13T14:49:22.422Z,0.99
2023-02-13T14:50:22.423Z,0.90
2023-02-13T14:51:22.411Z,0.61
2023-02-13T14:52:22.437Z,0.64
2023-02-13T14:53:22.469Z,0.42
2023-02-13T14:54:22.429Z,0.34
2023-02-13T14:55:22.422Z,0.40
2023-02-13T14:56:22.382Z,0.34
2023-02-13T14:57:22.372Z,0.71
2023-02-13T14:58:22.524Z,0.40
2023-02-13T14:59:22.414Z,0.49
2023-02-13T15:00:22.393Z,0.44
2023-02-13T15:01:22.427Z,0.46
2023-02-13T15:02:22.478Z,0.57
2023-02-13T15:03:22.441Z,0.82
2023-02-13T15:04:22.617Z,1.06
2023-02-13T15:05:22.513Z,1.38
2023-02-13T15:28:01.810Z,0.50
2023-02-13T15:29:01.371Z,0.50
2023-02-13T15:30:01.490Z,0.50
2023-02-13T15:31:02.000Z,0.50
2023-02-13T15:32:01.421Z,0.50
2023-02-13T15:33:01.376Z,0.49
2023-02-13T15:34:01.370Z,0.63
2023-02-13T15:35:01.478Z,0.74
2023-02-13T15:36:01.352Z,0.51
2023-02-13T15:37:01.390Z,0.59
2023-02-13T15:38:01.408Z,0.59
2023-02-13T15:39:01.346Z,0.75
2023-02-13T15:40:01.306Z,0.53
2023-02-13T15:41:01.626Z,0.57
2023-02-13T15:42:01.533Z,0.70
2023-02-13T15:43:01.341Z,0.74
2023-02-13T15:44:01.293Z,0.48
2023-02-13T15:45:01.271Z,0.52
2023-02-13T15:46:01.385Z,0.70
2023-02-13T15:47:01.324Z,1.21
2023-02-13T15:48:01.258Z,1.51
2023-02-13T15:49:01.267Z,2.22
2023-02-13T15:50:01.270Z,2.15
2023-02-13T15:51:01.282Z,2.52
2023-02-13T15:52:01.231Z,1.96
2023-02-13T15:53:01.314Z,1.32
2023-02-13T15:54:01.234Z,1.72
2023-02-13T15:55:01.217Z,2.10
2023-02-13T15:56:01.220Z,2.24
2023-02-13T15:57:01.254Z,0.92
2023-02-13T15:58:01.616Z,0.96
2023-02-13T15:59:01.170Z,1.25
2023-02-13T16:00:01.343Z,1.11
2023-02-13T16:01:01.348Z,1.39
2023-02-13T16:02:01.283Z,1.21
2023-02-13T16:03:01.211Z,1.77
2023-02-13T16:04:01.188Z,1.85
2023-02-13T16:05:01.212Z,1.75
2023-02-13T16:06:01.202Z,1.56
2023-02-13T16:07:01.316Z,1.77
2023-02-13T16:08:01.187Z,1.93
2023-02-13T16:09:01.129Z,2.03
2023-02-13T16:10:01.286Z,2.62
2023-02-13T16:11:02.169Z,3.43
2023-02-13T16:12:01.240Z,5.25
2023-02-13T16:13:01.267Z,5.36
2023-02-13T16:14:01.282Z,5.72
2023-02-13T16:15:01.315Z,6.94
2023-02-13T16:16:01.309Z,6.34
2023-02-13T16:17:01.353Z,7.28
2023-02-13T16:18:01.340Z,4.93
2023-02-13T16:19:01.348Z,3.17
2023-02-13T16:20:01.430Z,3.75
2023-02-13T16:21:01.531Z,5.83
2023-02-13T16:22:01.417Z,6.36
2023-02-13T16:23:01.431Z,6.23
2023-02-13T16:24:01.485Z,6.20
2023-02-13T16:25:03.953Z,5.11
2023-02-13T16:26:01.686Z,5.68
2023-02-13T16:27:01.669Z,6.57
2023-02-13T16:28:01.856Z,5.34
2023-02-13T16:29:01.724Z,4.42
2023-02-13T16:30:01.861Z,5.77
2023-02-13T16:31:02.173Z,5.56
2023-02-13T16:32:01.920Z,6.76
2023-02-13T16:33:02.180Z,6.65
2023-02-13T16:34:02.225Z,6.90
2023-02-13T16:35:02.452Z,7.49
2023-02-13T16:36:03.692Z,9.78
2023-02-13T16:37:02.291Z,12.03
2023-02-13T16:38:02.610Z,14.96
2023-02-13T16:39:02.701Z,20.09
2023-02-13T16:40:03.738Z,28.75
2023-02-13T16:41:17.696Z,35.78
2023-02-13T16:42:01.842Z,36.17
2023-02-13T16:43:01.857Z,37.45
2023-02-13T16:44:01.866Z,40.20
2023-02-13T16:45:01.927Z,47.03
2023-02-13T16:46:01.895Z,59.83
2023-02-13T16:47:01.891Z,66.53
2023-02-13T16:48:01.874Z,69.86
2023-02-13T16:49:02.054Z,70.17
2023-02-13T16:50:02.422Z,74.54
2023-02-13T16:51:01.845Z,76.55
2023-02-13T16:52:01.821Z,83.87
2023-02-13T16:53:01.814Z,80.29
2023-02-13T16:54:01.795Z,75.75
2023-02-13T16:55:01.844Z,73.96
2023-02-13T16:56:01.832Z,83.53
2023-02-13T16:57:01.738Z,76.90
2023-02-13T16:58:01.804Z,79.62
2023-02-13T16:59:01.754Z,72.47
2023-02-13T17:00:01.800Z,56.63
2023-02-13T17:02:21.471Z,0.50
2023-02-13T17:03:21.610Z,0.50
2023-02-13T17:04:21.459Z,0.50
2023-02-13T17:05:21.340Z,0.50
2023-02-13T17:06:21.288Z,0.50
2023-02-13T17:07:21.284Z,0.52
2023-02-13T17:08:21.305Z,0.56
2023-02-13T17:09:21.202Z,0.61
2023-02-13T17:11:40.963Z,0.50
2023-02-13T17:12:40.849Z,0.50
2023-02-13T17:13:42.128Z,0.50
2023-02-13T17:14:40.777Z,0.50
2023-02-13T17:15:40.877Z,0.50
2023-02-13T17:16:40.844Z,0.50
2023-02-13T17:17:40.776Z,0.50
2023-02-13T17:18:40.737Z,0.51
2023-02-13T17:19:40.790Z,0.50
2023-02-13T17:20:40.806Z,0.50
2023-02-13T17:21:40.701Z,0.51
2023-02-13T17:22:40.730Z,0.50
2023-02-13T17:23:40.717Z,0.52
2023-02-13T17:24:40.749Z,0.52
2023-02-13T17:25:40.829Z,0.53
2023-02-13T17:26:40.846Z,0.48
2023-02-13T17:27:40.792Z,0.39
2023-02-13T17:28:40.867Z,0.37
2023-02-13T17:29:40.880Z,0.44
2023-02-13T17:30:40.866Z,0.53
2023-02-13T17:31:41.005Z,0.58
2023-02-13T17:32:40.901Z,0.60
2023-02-13T17:33:40.994Z,0.64
2023-02-13T17:34:41.003Z,0.54
2023-02-13T17:37:01.252Z,0.50
2023-02-13T17:38:00.716Z,0.50
2023-02-13T17:39:01.120Z,0.50
2023-02-13T17:40:00.767Z,0.50
2023-02-13T17:41:01.063Z,0.50
2023-02-13T17:42:00.730Z,0.51
2023-02-13T17:43:00.885Z,0.49
2023-02-13T17:44:00.785Z,0.42
2023-02-13T17:45:00.846Z,0.49
2023-02-13T17:46:01.450Z,0.50
2023-02-13T17:47:00.875Z,0.53
2023-02-13T17:48:00.978Z,0.51
2023-02-13T17:49:00.855Z,0.40
2023-02-13T17:50:09.443Z,0.41
2023-02-13T17:51:01.924Z,0.42
2023-02-13T17:52:01.016Z,0.45
2023-02-13T17:53:00.953Z,0.52
2023-02-13T17:54:00.960Z,0.68
2023-02-13T17:56:20.777Z,0.50
2023-02-13T17:57:20.375Z,0.50
2023-02-13T17:58:20.424Z,0.50
2023-02-13T17:59:20.377Z,0.50
2023-02-13T18:00:20.363Z,0.50
2023-02-13T18:01:20.461Z,0.51
2023-02-13T18:02:20.316Z,0.54
2023-02-13T18:03:20.350Z,0.53
2023-02-13T18:04:20.460Z,0.63
2023-02-13T18:05:20.313Z,0.78
2023-02-13T18:06:20.339Z,1.00
2023-02-13T18:07:20.314Z,1.11
2023-02-13T18:08:20.439Z,1.11
2023-02-13T18:09:20.357Z,1.23
2023-02-13T18:10:20.291Z,1.30
2023-02-13T18:11:20.238Z,1.28
2023-02-13T18:12:20.291Z,1.30
2023-02-13T18:13:20.273Z,1.24
2023-02-13T19:23:10.164Z,0.50
2023-02-13T19:24:09.512Z,0.50
2023-02-13T19:25:09.371Z,0.50
2023-02-13T19:27:56.835Z,0.50
2023-02-13T19:28:56.647Z,0.50
2023-02-13T19:29:56.513Z,0.50
2023-02-13T19:30:56.576Z,0.50
2023-02-13T19:33:16.428Z,0.50
2023-02-13T20:26:35.452Z,0.50
2023-02-13T20:28:35.373Z,0.50
2023-02-13T20:29:37.279Z,0.50
2023-02-13T20:30:35.501Z,0.50
2023-02-13T20:31:35.437Z,0.50
2023-02-13T20:47:34.765Z,0.50
2023-02-13T20:48:34.668Z,0.50
2023-02-13T21:26:14.558Z,0.50
2023-02-13T21:27:14.569Z,0.50
2023-02-13T21:28:14.672Z,0.50
2023-02-13T21:29:14.634Z,0.50
2023-02-13T21:30:14.623Z,0.50
2023-02-13T21:31:14.561Z,0.51
2023-02-13T21:32:14.548Z,0.51
2023-02-13T21:33:14.508Z,0.50
2023-02-13T21:34:14.535Z,0.50
2023-02-13T21:35:14.505Z,0.51
2023-02-13T21:36:14.524Z,0.51
2023-02-13T21:37:14.450Z,0.50
2023-02-13T21:39:35.272Z,0.50
2023-02-13T21:40:35.589Z,0.50
2023-02-13T21:41:35.396Z,0.50
2023-02-13T21:42:35.324Z,0.50
2023-02-13T21:43:36.024Z,0.50
2023-02-13T21:44:35.968Z,0.50
2023-02-13T21:49:15.575Z,0.50
2023-02-13T21:56:48.102Z,0.50
2023-02-13T21:59:08.183Z,0.50
2023-02-13T22:00:07.393Z,0.50
2023-02-13T22:01:11.557Z,0.50
2023-02-13T22:02:08.457Z,0.50
2023-02-13T22:03:07.428Z,0.50
2023-02-13T22:04:07.412Z,0.50
2023-02-13T22:05:07.381Z,0.50
2023-02-13T22:06:07.325Z,0.50
2023-02-13T22:07:07.334Z,0.50
2023-02-13T22:08:07.422Z,0.50
2023-02-13T22:09:07.416Z,0.50
2023-02-13T22:10:07.400Z,0.51
2023-02-13T22:11:07.276Z,0.51
2023-02-13T22:12:07.310Z,0.50
2023-02-13T22:13:07.356Z,0.50
2023-02-13T22:14:07.347Z,0.50
2023-02-13T22:15:08.106Z,0.50
2023-02-13T22:16:07.396Z,0.51
2023-02-13T22:17:07.451Z,0.51
2023-02-13T22:18:07.374Z,0.51
2023-02-13T22:19:07.358Z,0.52
2023-02-13T22:20:07.550Z,0.50
2023-02-13T22:21:07.343Z,0.50
2023-02-13T22:22:07.335Z,0.50
2023-02-13T22:23:07.401Z,0.50
2023-02-13T22:24:07.440Z,0.50
2023-02-13T22:26:28.377Z,0.50
2023-02-13T22:49:38.700Z,0.50
2023-02-13T22:50:38.253Z,0.50
2023-02-13T22:51:39.069Z,0.50
2023-02-13T22:52:38.781Z,0.50
2023-02-13T22:53:37.896Z,0.50
2023-02-13T22:54:38.694Z,0.47
2023-02-13T22:55:37.725Z,0.46
2023-02-13T22:56:38.900Z,0.48
2023-02-13T22:57:37.693Z,0.50
2023-02-13T22:58:38.037Z,0.50
2023-02-13T22:59:40.177Z,0.50
2023-02-13T23:00:38.136Z,0.50
2023-02-13T23:01:37.909Z,0.50